オスロ の空港の天気 - METARとTAF

オスロ空港 ( ENGM / OSL ) - ノルウェー アーケシュフース県オスロ
飛行場実況気象(Metar)
観測時間02/20 15:50 CET (02/20 14:50 UTC)
風向・風速不定 1m/s
視程10km以上
天気現象
なし
気温3℃
湿度87%
気圧985hPa
METARENGM 201450Z VRB02KT CAVOK 03/01 Q0985 NOSIG
過去の天気等 Google飛行場航空写真 Wunderground天気予報

過去48時間のMETAR

飛行場予報(TAF)
発表時間: -
20日20時 CET ~ 21日10時 CET に 確率 40% で一時的に
視程3,000m
天気現象弱い氷雨 弱い雪
全天を覆う雲 雲底高度 90m
TAF ENGM 2012/2112 VRB05KT 9999 FEW012 BKN080
PROB40 TEMPO 2019/2109 3000 -FZRA -SN OVC003